Time;durP1;ratioP1;P1;durP2;ratioP2;P2;SDS_P1;SDS_P2;PMS_P1;PMS_P2;Temp;Humidity;BMP_temperature;BMP_pressure;BME280_temperature;BME280_humidity;BME280_pressure;Samples;Min_cycle;Max_cycle;Signal;HPM_P1;HPM_P2
2023/02/09 00:01:23;;;;;;;52.50;28.65;;;;;;;-2.77;100.00;103275.53;10096774;28;20573;-65
2023/02/09 00:06:22;;;;;;;49.08;29.40;;;;;;;-2.77;100.00;103272.84;10107301;28;20042;-64
2023/02/09 00:13:21;;;;;;;58.45;32.65;;;;;;;-2.85;100.00;103257.63;10102262;28;20494;-64
2023/02/09 00:16:39;;;;;;;63.22;33.60;;;;;;;-2.88;100.00;103251.75;10099972;28;20088;-65
2023/02/09 00:21:36;;;;;;;55.25;30.15;;;;;;;-2.93;100.00;103246.06;10104265;28;20046;-64
2023/02/09 00:26:33;;;;;;;51.58;30.70;;;;;;;-2.93;100.00;103238.03;10097633;28;20101;-65
2023/02/09 00:31:29;;;;;;;51.97;31.00;;;;;;;-3.02;100.00;103229.16;10099145;28;20050;-65
2023/02/09 00:36:26;;;;;;;59.85;33.53;;;;;;;-3.02;100.00;103226.47;10103051;28;20102;-64
2023/02/09 00:46:38;;;;;;;57.47;33.92;;;;;;;-3.07;100.00;103212.75;10101871;28;20097;-65
2023/02/09 00:51:34;;;;;;;54.47;34.70;;;;;;;-3.03;100.00;103217.63;10107335;28;20044;-65
2023/02/09 00:56:31;;;;;;;56.92;34.67;;;;;;;-3.04;100.00;103204.38;10109075;28;20105;-65
2023/02/09 01:01:27;;;;;;;56.55;35.72;;;;;;;-3.06;100.00;103195.72;10102858;28;20050;-65
2023/02/09 01:06:24;;;;;;;57.15;33.00;;;;;;;-3.07;100.00;103204.72;10103875;28;20089;-65
2023/02/09 01:11:21;;;;;;;57.75;34.83;;;;;;;-3.10;100.00;103195.19;10117466;28;20453;-65
2023/02/09 01:16:20;;;;;;;60.72;35.30;;;;;;;-3.08;100.00;103192.34;10109911;28;20074;-65
2023/02/09 01:21:19;;;;;;;58.50;34.50;;;;;;;-3.12;100.00;103201.72;10110243;28;20078;-65
2023/02/09 01:26:17;;;;;;;56.42;33.38;;;;;;;-3.08;100.00;103182.47;10101492;28;20054;-65
2023/02/09 01:31:20;;;;;;;55.83;33.17;;;;;;;-3.13;100.00;103176.81;10108643;28;20070;-65
2023/02/09 01:36:17;;;;;;;53.28;31.60;;;;;;;-3.13;100.00;103167.91;10102211;28;20046;-66
2023/02/09 01:41:14;;;;;;;57.33;33.30;;;;;;;-3.18;100.00;103169.28;10100559;28;20065;-64
2023/02/09 01:46:10;;;;;;;56.20;35.60;;;;;;;-3.23;100.00;103160.88;10110486;28;20050;-64
2023/02/09 01:51:07;;;;;;;57.50;34.97;;;;;;;-3.21;100.00;103150.84;10105604;28;20047;-65
2023/02/09 01:56:10;;;;;;;59.00;34.95;;;;;;;-3.24;100.00;103151.19;10110262;28;20156;-65
2023/02/09 02:01:06;;;;;;;56.05;34.30;;;;;;;-3.29;100.00;103142.84;10104956;28;20073;-64
2023/02/09 02:06:10;;;;;;;67.13;36.05;;;;;;;-3.30;100.00;103146.50;10101408;28;20039;-64
2023/02/09 02:11:07;;;;;;;56.17;33.25;;;;;;;-3.40;100.00;103129.78;10098714;28;20542;-65
2023/02/09 02:16:32;;;;;;;60.38;34.63;;;;;;;-3.38;100.00;103125.94;10100465;28;20067;-65
2023/02/09 02:21:49;;;;;;;59.25;35.33;;;;;;;-3.42;100.00;103121.91;10101666;28;20077;-65
2023/02/09 02:26:52;;;;;;;57.80;34.65;;;;;;;-3.41;100.00;103109.38;10095296;28;20047;-64
2023/02/09 02:32:09;;;;;;;53.50;33.30;;;;;;;-3.46;100.00;103109.03;10099868;28;20482;-63
2023/02/09 02:37:25;;;;;;;61.70;35.03;;;;;;;-3.50;100.00;103102.34;10093685;28;20465;-64
2023/02/09 02:42:50;;;;;;;63.05;34.63;;;;;;;-3.51;100.00;103101.50;10099107;28;20053;-64
2023/02/09 02:47:56;;;;;;;57.20;35.55;;;;;;;-3.47;100.00;103092.16;10110031;28;20503;-64
2023/02/09 02:52:55;;;;;;;63.22;36.45;;;;;;;-3.46;100.00;103098.31;10103131;28;20039;-64
2023/02/09 02:57:55;;;;;;;54.10;33.97;;;;;;;-3.48;100.00;103086.94;10102843;28;20054;-65
2023/02/09 03:02:55;;;;;;;60.20;36.28;;;;;;;-3.44;100.00;103075.75;10104027;28;20093;-64
2023/02/09 03:07:51;;;;;;;49.92;34.17;;;;;;;-3.38;100.00;103068.91;10107107;28;20058;-64
2023/02/09 03:13:03;;;;;;;56.97;34.45;;;;;;;-3.39;100.00;103072.56;10094534;28;20043;-64
2023/02/09 03:18:12;;;;;;;57.35;35.10;;;;;;;-3.42;100.00;103067.56;10094575;28;20464;-64
2023/02/09 03:23:18;;;;;;;56.03;32.90;;;;;;;-3.35;100.00;103063.22;10093445;28;20165;-65
2023/02/09 03:28:23;;;;;;;55.70;32.88;;;;;;;-3.34;100.00;103054.22;10095311;28;20133;-65
2023/02/09 03:33:26;;;;;;;52.50;33.63;;;;;;;-3.35;100.00;103036.47;10089619;28;20517;-65
2023/02/09 03:38:23;;;;;;;52.80;32.47;;;;;;;-3.36;100.00;103033.94;10087853;28;20130;-65
2023/02/09 03:44:25;;;;;;;51.03;31.02;;;;;;;-3.36;100.00;103034.81;10106703;28;20046;-65
2023/02/09 03:48:37;;;;;;;57.85;32.88;;;;;;;-3.49;100.00;103029.13;10099048;28;20098;-65
2023/02/09 03:53:35;;;;;;;52.63;32.15;;;;;;;-3.38;100.00;103010.91;10100215;28;20556;-66
2023/02/09 03:58:32;;;;;;;54.55;32.60;;;;;;;-3.36;100.00;103013.41;10103632;28;20095;-65
2023/02/09 04:03:28;;;;;;;53.05;30.88;;;;;;;-3.36;100.00;103002.72;10093462;28;20499;-64
2023/02/09 04:08:25;;;;;;;53.03;32.35;;;;;;;-3.31;100.00;103010.22;10098360;28;20138;-65
2023/02/09 04:13:23;;;;;;;53.70;33.25;;;;;;;-3.33;100.00;103010.38;10102106;28;20046;-63
2023/02/09 04:18:19;;;;;;;53.58;31.60;;;;;;;-3.35;100.00;103004.38;10100315;28;20049;-63
2023/02/09 04:23:16;;;;;;;51.20;30.65;;;;;;;-3.39;100.00;102998.53;10099366;28;20174;-64
2023/02/09 04:28:14;;;;;;;50.95;29.58;;;;;;;-3.35;100.00;102993.66;10095825;28;20039;-64
2023/02/09 04:33:11;;;;;;;53.15;29.85;;;;;;;-3.36;100.00;102981.31;10091700;28;20051;-64
2023/02/09 04:38:07;;;;;;;46.92;30.00;;;;;;;-3.42;100.00;102977.44;10094588;28;20528;-64
2023/02/09 04:43:04;;;;;;;49.70;28.80;;;;;;;-3.46;100.00;102969.94;10096372;28;20146;-64
2023/02/09 04:48:00;;;;;;;43.30;27.70;;;;;;;-3.39;100.00;102965.56;10095917;28;20505;-64
2023/02/09 04:52:57;;;;;;;53.38;29.70;;;;;;;-3.36;100.00;102969.75;10101462;28;20142;-64
2023/02/09 05:03:08;;;;;;;45.53;26.92;;;;;;;-3.31;100.00;102949.53;10100967;28;20043;-65
2023/02/09 05:08:05;;;;;;;42.85;27.40;;;;;;;-3.26;100.00;102949.84;10088645;28;20043;-65
2023/02/09 05:13:01;;;;;;;44.38;27.13;;;;;;;-3.28;100.00;102967.91;10091959;28;20039;-64
2023/02/09 05:17:57;;;;;;;43.20;25.63;;;;;;;-3.22;100.00;102945.81;10098604;28;20054;-65
2023/02/09 05:22:54;;;;;;;42.97;23.60;;;;;;;-3.17;100.00;102932.75;10099402;28;20051;-65
2023/02/09 05:27:50;;;;;;;42.38;25.02;;;;;;;-3.21;100.00;102923.41;10097289;28;20114;-65
2023/02/09 05:32:47;;;;;;;39.92;23.45;;;;;;;-3.21;100.00;102926.06;10101636;28;20066;-66
2023/02/09 05:37:43;;;;;;;36.78;23.27;;;;;;;-3.21;100.00;102912.69;10106201;28;20054;-65
2023/02/09 05:42:40;;;;;;;39.67;24.50;;;;;;;-3.11;100.00;102919.69;10102118;28;20074;-66
2023/02/09 05:47:37;;;;;;;37.90;23.63;;;;;;;-3.06;100.00;102936.09;10087523;28;20047;-65
2023/02/09 05:52:33;;;;;;;40.63;24.88;;;;;;;-2.97;100.00;102937.69;10108700;28;20410;-66
2023/02/09 05:57:30;;;;;;;35.22;23.15;;;;;;;-2.92;100.00;102946.06;10096975;28;20125;-66
2023/02/09 06:02:26;;;;;;;35.40;22.85;;;;;;;-2.91;100.00;102937.03;10108882;28;20054;-67
2023/02/09 06:07:23;;;;;;;39.70;24.55;;;;;;;-2.89;100.00;102950.25;10108719;28;20047;-67
2023/02/09 06:12:19;;;;;;;36.47;21.52;;;;;;;-2.81;100.00;102963.56;10102390;28;20043;-67
2023/02/09 06:17:16;;;;;;;37.85;24.17;;;;;;;-2.93;100.00;102964.97;10090730;28;20134;-67
2023/02/09 06:22:13;;;;;;;40.78;23.45;;;;;;;-2.96;100.00;102971.50;10091341;28;20051;-68
2023/02/09 06:27:11;;;;;;;37.17;23.67;;;;;;;-3.01;100.00;102979.22;10092854;28;20061;-68
2023/02/09 06:32:08;;;;;;;38.47;24.48;;;;;;;-3.02;100.00;102978.41;10096230;28;20078;-68
2023/02/09 06:37:04;;;;;;;33.65;24.67;;;;;;;-3.03;100.00;102978.56;10106199;28;20062;-69
2023/02/09 06:42:01;;;;;;;38.33;24.05;;;;;;;-3.03;100.00;102975.88;10103599;28;20043;-68
2023/02/09 06:46:57;;;;;;;37.10;26.17;;;;;;;-3.06;100.00;102960.19;10099975;28;20130;-68
2023/02/09 06:51:53;;;;;;;37.00;24.25;;;;;;;-3.07;100.00;102963.84;10110839;28;20673;-67
2023/02/09 06:56:50;;;;;;;38.88;25.35;;;;;;;-3.10;100.00;102953.50;10100036;28;20117;-67
2023/02/09 07:01:50;;;;;;;34.40;23.63;;;;;;;-3.14;100.00;102957.50;10096622;28;20059;-68
2023/02/09 07:06:50;;;;;;;33.47;24.13;;;;;;;-3.04;100.00;102952.78;10096419;28;20050;-67
2023/02/09 07:11:46;;;;;;;29.40;21.38;;;;;;;-2.86;100.00;102944.53;10095975;28;20066;-67
2023/02/09 07:16:43;;;;;;;28.70;20.33;;;;;;;-2.83;100.00;102939.69;10101657;28;20670;-68
2023/02/09 07:21:40;;;;;;;31.30;21.30;;;;;;;-2.75;100.00;102947.66;10094553;28;20054;-67
2023/02/09 07:26:36;;;;;;;31.90;19.75;;;;;;;-2.65;100.00;102941.25;10099696;28;20051;-67
2023/02/09 07:31:33;;;;;;;31.17;19.75;;;;;;;-2.39;100.00;102941.78;10098539;28;20059;-68
2023/02/09 07:36:29;;;;;;;28.13;18.23;;;;;;;-2.36;100.00;102952.16;10098480;28;20138;-67
2023/02/09 07:41:27;;;;;;;32.88;18.13;;;;;;;-2.30;100.00;102960.47;10096321;28;20142;-67
2023/02/09 07:46:24;;;;;;;32.35;18.65;;;;;;;-2.27;100.00;102949.44;10094014;28;20489;-67
2023/02/09 07:51:24;;;;;;;27.80;18.40;;;;;;;-2.08;100.00;102954.31;10112477;28;20567;-67
2023/02/09 07:56:22;;;;;;;26.63;15.85;;;;;;;-1.95;100.00;102965.28;10103344;28;20069;-67
2023/02/09 08:01:18;;;;;;;25.10;16.88;;;;;;;-1.87;100.00;102968.91;10096886;28;20590;-67
2023/02/09 08:06:41;;;;;;;27.15;16.48;;;;;;;-1.80;100.00;102967.19;10100521;28;20062;-67
2023/02/09 08:11:47;;;;;;;24.45;15.35;;;;;;;-1.66;100.00;102963.69;10098365;28;20058;-67
2023/02/09 08:16:44;;;;;;;25.23;14.82;;;;;;;-1.61;100.00;102961.31;10091510;28;20509;-67
2023/02/09 08:21:43;;;;;;;25.55;14.43;;;;;;;-1.46;100.00;102958.66;10101549;28;20613;-67
2023/02/09 08:26:41;;;;;;;25.83;15.05;;;;;;;-1.31;100.00;102958.69;10091393;28;20055;-66
2023/02/09 08:31:39;;;;;;;22.40;13.10;;;;;;;-1.13;100.00;102956.47;10090473;28;20051;-67
2023/02/09 08:36:36;;;;;;;23.48;13.43;;;;;;;-0.87;100.00;102952.47;10103929;28;20130;-67
2023/02/09 08:41:32;;;;;;;19.38;12.45;;;;;;;-0.72;100.00;102950.63;10096743;28;20039;-67
2023/02/09 08:46:29;;;;;;;22.13;11.93;;;;;;;-0.56;100.00;102948.72;10105609;28;20071;-67
2023/02/09 08:51:26;;;;;;;18.38;12.13;;;;;;;-0.40;100.00;102950.38;10103159;28;20066;-67
2023/02/09 08:56:22;;;;;;;18.10;11.85;;;;;;;-0.32;100.00;102951.09;10108386;28;20038;-67
2023/02/09 09:01:19;;;;;;;18.45;11.70;;;;;;;-0.18;100.00;102951.22;10091583;28;20047;-67
2023/02/09 09:06:16;;;;;;;19.40;12.52;;;;;;;-0.09;100.00;102950.09;10106494;28;20054;-67
2023/02/09 09:11:13;;;;;;;17.08;10.77;;;;;;;-0.07;100.00;102932.72;10112299;28;20501;-67
2023/02/09 09:16:17;;;;;;;18.15;12.63;;;;;;;0.06;100.00;102940.06;10107847;28;20101;-67
2023/02/09 09:21:16;;;;;;;18.48;11.88;;;;;;;0.22;100.00;102930.09;10103170;28;20420;-67
2023/02/09 09:26:14;;;;;;;16.80;10.98;;;;;;;0.29;100.00;102944.41;10106517;28;20086;-67
2023/02/09 09:31:12;;;;;;;19.55;11.65;;;;;;;0.41;100.00;102918.63;10110432;28;20054;-67
2023/02/09 09:36:10;;;;;;;19.50;11.98;;;;;;;0.52;100.00;102910.03;10114201;28;20070;-67
2023/02/09 09:41:23;;;;;;;24.15;12.45;;;;;;;0.65;100.00;102889.59;10101763;28;20051;-67
2023/02/09 09:46:29;;;;;;;18.63;11.63;;;;;;;0.85;100.00;102877.06;10098908;28;20075;-67
2023/02/09 09:51:35;;;;;;;19.20;12.20;;;;;;;0.99;100.00;102881.47;10109459;28;20053;-67
2023/02/09 09:56:32;;;;;;;24.08;13.23;;;;;;;1.14;100.00;102861.63;10095604;28;20058;-67
2023/02/09 10:01:30;;;;;;;16.30;10.98;;;;;;;1.16;100.00;102891.91;10104923;28;20078;-67
2023/02/09 10:06:30;;;;;;;19.50;10.60;;;;;;;1.26;100.00;102889.69;10097853;28;20074;-67
2023/02/09 10:11:34;;;;;;;19.02;10.82;;;;;;;1.52;100.00;102893.50;10097538;28;20054;-67
2023/02/09 10:16:33;;;;;;;17.05;10.75;;;;;;;1.81;100.00;102879.66;10100238;28;20055;-67
2023/02/09 10:21:33;;;;;;;22.30;11.55;;;;;;;1.82;100.00;102867.81;10097398;28;20051;-67
2023/02/09 10:26:33;;;;;;;18.48;11.80;;;;;;;1.85;100.00;102853.91;10099073;28;20551;-67
2023/02/09 10:31:46;;;;;;;18.25;11.07;;;;;;;1.96;100.00;102878.63;10103525;28;20046;-67
2023/02/09 10:36:53;;;;;;;;;;;;;;;2.00;100.00;102879.88;10096712;28;20055;-65
2023/02/09 10:41:52;;;;;;;22.42;11.77;;;;;;;2.27;100.00;102859.06;10095899;28;20435;-67
2023/02/09 10:47:06;;;;;;;15.20;11.20;;;;;;;2.31;100.00;102854.94;10105445;28;20051;-67
2023/02/09 10:52:14;;;;;;;24.50;12.48;;;;;;;2.48;100.00;102876.91;10114398;28;20055;-67
2023/02/09 10:57:25;;;;;;;18.30;11.85;;;;;;;2.36;100.00;102889.41;10105519;28;20057;-68
2023/02/09 11:02:33;;;;;;;22.08;11.70;;;;;;;2.37;100.00;102907.25;10108097;28;20054;-67
2023/02/09 11:07:36;;;;;;;19.88;12.68;;;;;;;2.45;100.00;102877.34;10102045;28;20074;-67
2023/02/09 11:12:32;;;;;;;18.23;11.15;;;;;;;2.44;100.00;102875.69;10088223;28;20488;-67
2023/02/09 11:17:36;;;;;;;34.03;14.90;;;;;;;2.66;100.00;102893.28;10109922;28;20105;-67
2023/02/09 11:22:51;;;;;;;33.53;12.52;;;;;;;2.69;100.00;102895.59;10103896;28;20047;-67
2023/02/09 11:28:14;;;;;;;15.07;11.05;;;;;;;2.81;100.00;102892.19;10088264;28;20355;-68
2023/02/09 11:33:25;;;;;;;16.87;10.33;;;;;;;2.58;100.00;102898.09;10100923;28;20509;-67
2023/02/09 11:38:37;;;;;;;20.83;10.75;;;;;;;2.63;100.00;102891.00;10093331;28;20070;-67
2023/02/09 11:43:39;;;;;;;19.58;10.80;;;;;;;2.83;100.00;102879.31;10104169;28;20038;-66
2023/02/09 11:48:40;;;;;;;16.15;11.35;;;;;;;3.17;100.00;102875.44;10098301;28;20141;-67
2023/02/09 11:53:57;;;;;;;14.47;10.27;;;;;;;3.07;100.00;102875.91;10117500;28;20050;-67
2023/02/09 11:58:56;;;;;;;18.73;13.07;;;;;;;3.03;100.00;102880.06;10097298;28;20045;-66
2023/02/09 12:04:02;;;;;;;18.75;11.80;;;;;;;3.22;100.00;102872.91;10101619;28;20054;-66
2023/02/09 12:09:14;;;;;;;23.00;10.98;;;;;;;3.32;100.00;102872.47;10107045;28;20047;-66
2023/02/09 12:14:30;;;;;;;19.80;12.90;;;;;;;3.48;100.00;102881.94;10108052;28;20047;-66
2023/02/09 12:19:35;;;;;;;22.08;11.35;;;;;;;3.42;100.00;102870.13;10092916;28;20097;-67
2023/02/09 12:25:10;;;;;;;19.38;11.63;;;;;;;3.44;100.00;102876.13;10093744;28;20042;-66
2023/02/09 12:30:38;;;;;;;18.70;11.30;;;;;;;3.52;100.00;102870.47;10095887;28;20058;-67
2023/02/09 12:35:38;;;;;;;18.48;11.15;;;;;;;3.50;100.00;102875.25;10086262;28;20504;-66
2023/02/09 12:40:36;;;;;;;17.23;11.50;;;;;;;3.40;100.00;102864.09;10092904;28;20101;-66
2023/02/09 12:45:43;;;;;;;17.27;12.30;;;;;;;3.31;100.00;102876.22;10096505;28;20126;-67
2023/02/09 12:50:44;;;;;;;17.38;11.48;;;;;;;3.26;100.00;102874.16;10106043;28;20049;-66
2023/02/09 12:55:56;;;;;;;20.25;11.60;;;;;;;3.16;100.00;102863.81;10099026;28;20146;-67
2023/02/09 13:00:54;;;;;;;23.43;11.80;;;;;;;3.01;100.00;102851.59;10098219;28;20078;-67
2023/02/09 13:05:56;;;;;;;18.70;11.90;;;;;;;3.03;100.00;102850.34;10096837;28;20044;-66
2023/02/09 13:11:02;;;;;;;17.38;12.80;;;;;;;3.00;100.00;102842.69;10088471;28;20047;-66
2023/02/09 13:16:04;;;;;;;21.45;14.02;;;;;;;2.87;100.00;102831.91;10100714;28;20074;-66
2023/02/09 13:21:22;;;;;;;15.68;11.35;;;;;;;2.80;100.00;102818.44;10100294;28;20047;-66
2023/02/09 13:26:26;;;;;;;17.85;13.20;;;;;;;2.84;100.00;102813.44;10091351;28;20118;-66
2023/02/09 13:31:46;;;;;;;24.13;12.97;;;;;;;2.81;100.00;102816.56;10095593;28;20051;-66
2023/02/09 13:36:54;;;;;;;20.63;12.88;;;;;;;2.86;100.00;102808.66;10098502;28;20059;-66
2023/02/09 13:41:53;;;;;;;18.23;12.43;;;;;;;2.91;100.00;102812.34;10082898;28;20086;-66
2023/02/09 13:46:52;;;;;;;21.92;12.10;;;;;;;2.98;100.00;102809.63;10092001;28;20139;-67
2023/02/09 13:52:07;;;;;;;22.50;13.85;;;;;;;2.90;100.00;102796.34;10102757;28;20432;-66
2023/02/09 13:57:09;;;;;;;19.25;12.45;;;;;;;2.90;100.00;102809.84;10097783;28;20126;-66
2023/02/09 14:02:24;;;;;;;22.63;13.02;;;;;;;2.93;100.00;102798.66;10089820;28;20046;-66
2023/02/09 14:07:25;;;;;;;23.42;12.85;;;;;;;3.17;100.00;102789.75;10099858;28;20050;-66
2023/02/09 14:12:54;;;;;;;19.17;12.70;;;;;;;3.09;100.00;102798.13;10105258;28;20162;-66
2023/02/09 14:17:50;;;;;;;19.77;13.55;;;;;;;3.23;100.00;102803.47;10108795;28;20110;-66
2023/02/09 14:22:57;;;;;;;20.60;14.23;;;;;;;3.22;100.00;102812.63;10092949;28;20505;-67
2023/02/09 14:27:55;;;;;;;18.15;13.10;;;;;;;3.14;100.00;102822.63;10083188;28;20078;-66
2023/02/09 14:32:54;;;;;;;20.17;13.40;;;;;;;3.03;100.00;102831.44;10092553;28;20069;-66
2023/02/09 14:37:53;;;;;;;17.20;12.35;;;;;;;2.96;100.00;102857.66;10094421;28;20106;-66
2023/02/09 14:42:59;;;;;;;24.60;14.32;;;;;;;2.80;100.00;102836.53;10090649;28;20145;-66
2023/02/09 14:47:56;;;;;;;27.98;13.93;;;;;;;2.73;100.00;102842.75;10088558;28;20520;-66
2023/02/09 14:53:04;;;;;;;25.67;13.73;;;;;;;2.80;100.00;102844.63;10104934;28;20074;-66
2023/02/09 14:58:28;;;;;;;21.98;14.43;;;;;;;2.67;100.00;102851.75;10103661;28;20050;-66
2023/02/09 15:03:24;;;;;;;19.75;13.85;;;;;;;2.70;100.00;102864.81;10091626;28;20052;-66
2023/02/09 15:08:24;;;;;;;23.52;14.50;;;;;;;2.66;100.00;102858.16;10095497;28;20058;-66
2023/02/09 15:13:21;;;;;;;19.70;13.35;;;;;;;2.59;100.00;102857.34;10104075;28;20629;-66
2023/02/09 15:18:21;;;;;;;18.02;13.43;;;;;;;2.63;100.00;102855.91;10108230;28;20046;-66
2023/02/09 15:23:18;;;;;;;21.17;13.98;;;;;;;2.57;100.00;102854.03;10086918;28;20565;-67
2023/02/09 15:28:26;;;;;;;20.90;13.30;;;;;;;2.58;100.00;102849.50;10100596;28;20039;-66
2023/02/09 15:33:25;;;;;;;19.83;14.23;;;;;;;2.64;100.00;102848.63;10104207;28;20105;-66
2023/02/09 15:38:22;;;;;;;21.02;14.60;;;;;;;2.58;100.00;102866.50;10099699;28;20398;-66
2023/02/09 15:48:36;;;;;;;22.13;14.35;;;;;;;2.59;100.00;102857.34;10095740;28;20956;-67
2023/02/09 15:53:33;;;;;;;22.73;14.27;;;;;;;2.59;100.00;102856.53;10098935;28;20047;-66
2023/02/09 15:58:32;;;;;;;25.42;14.23;;;;;;;2.51;100.00;102860.31;10083401;28;20083;-66
2023/02/09 16:03:31;;;;;;;20.70;14.65;;;;;;;2.54;100.00;102865.28;10093120;28;20042;-66
2023/02/09 16:08:34;;;;;;;20.30;14.02;;;;;;;2.57;100.00;102886.44;10083782;28;20416;-66
2023/02/09 16:13:30;;;;;;;23.45;13.95;;;;;;;2.57;100.00;102875.63;10098270;28;20053;-66
2023/02/09 16:18:27;;;;;;;21.38;15.45;;;;;;;2.56;100.00;102874.00;10099483;28;20072;-66
2023/02/09 16:23:23;;;;;;;22.08;14.52;;;;;;;2.54;100.00;102876.06;10109083;28;20059;-66
2023/02/09 16:28:20;;;;;;;22.73;15.05;;;;;;;2.48;100.00;102882.31;10105680;28;20070;-67
2023/02/09 16:33:17;;;;;;;21.02;15.80;;;;;;;2.43;100.00;102887.50;10093137;28;20043;-66
2023/02/09 16:38:17;;;;;;;22.35;14.90;;;;;;;2.39;100.00;102880.88;10092715;28;20081;-66
2023/02/09 16:43:14;;;;;;;21.10;15.77;;;;;;;2.33;100.00;102900.63;10094816;28;20065;-66
2023/02/09 16:48:19;;;;;;;22.35;14.00;;;;;;;2.40;100.00;102896.03;10094294;28;20494;-66
2023/02/09 16:53:17;;;;;;;19.15;14.07;;;;;;;2.41;100.00;102898.50;10098671;28;20660;-66
2023/02/09 16:58:15;;;;;;;24.27;15.38;;;;;;;2.47;100.00;102899.56;10095218;28;20053;-65
2023/02/09 17:03:21;;;;;;;22.35;15.43;;;;;;;2.43;100.00;102893.72;10099459;28;20042;-66
2023/02/09 17:08:23;;;;;;;23.05;15.13;;;;;;;2.42;100.00;102904.75;10096352;28;20457;-66
2023/02/09 17:13:20;;;;;;;23.08;15.65;;;;;;;2.46;100.00;102916.78;10105935;28;20054;-66
2023/02/09 17:18:26;;;;;;;26.55;15.30;;;;;;;2.51;100.00;102919.72;10104388;28;20074;-66
2023/02/09 17:23:24;;;;;;;24.48;15.05;;;;;;;2.52;100.00;102934.88;10102148;28;20070;-66
2023/02/09 17:28:26;;;;;;;20.85;14.27;;;;;;;2.54;100.00;102935.47;10104196;28;20057;-66
2023/02/09 17:33:29;;;;;;;25.85;16.25;;;;;;;2.48;100.00;102949.81;10102794;28;20062;-66
2023/02/09 17:38:31;;;;;;;25.10;15.48;;;;;;;2.51;100.00;102952.13;10110675;28;20428;-67
2023/02/09 17:43:28;;;;;;;25.37;16.13;;;;;;;2.41;100.00;102943.59;10105552;28;20161;-67
2023/02/09 17:48:25;;;;;;;25.58;16.05;;;;;;;2.36;100.00;102963.13;10107198;28;20599;-66
2023/02/09 17:53:24;;;;;;;22.85;14.95;;;;;;;2.44;100.00;102967.50;10108200;28;20746;-66
2023/02/09 17:58:22;;;;;;;21.55;15.18;;;;;;;2.38;100.00;102968.31;10105198;28;20058;-67
2023/02/09 18:03:22;;;;;;;25.58;15.75;;;;;;;2.35;100.00;102960.63;10096734;28;20068;-66
2023/02/09 18:08:19;;;;;;;22.60;15.60;;;;;;;2.34;100.00;102956.25;10105943;28;20047;-67
2023/02/09 18:13:17;;;;;;;23.98;15.60;;;;;;;2.29;100.00;102970.38;10108825;28;20047;-67
2023/02/09 18:18:14;;;;;;;26.85;16.67;;;;;;;2.35;100.00;102964.16;10110444;28;20066;-66
2023/02/09 18:23:14;;;;;;;25.35;15.95;;;;;;;2.35;100.00;102968.75;10111871;28;20039;-66
2023/02/09 18:28:13;;;;;;;26.60;17.45;;;;;;;2.36;100.00;102981.19;10094209;28;20567;-67
2023/02/09 18:33:10;;;;;;;29.73;16.15;;;;;;;2.37;100.00;102974.72;10096406;28;20067;-67
2023/02/09 18:38:09;;;;;;;26.42;17.30;;;;;;;2.36;100.00;102965.00;10111007;28;20061;-67
2023/02/09 18:43:06;;;;;;;25.02;15.20;;;;;;;2.33;100.00;102966.22;10118609;28;20127;-67
2023/02/09 18:48:03;;;;;;;27.48;16.67;;;;;;;2.35;100.00;102972.25;10111375;28;20042;-67
2023/02/09 18:53:01;;;;;;;32.60;17.98;;;;;;;2.33;100.00;102968.13;10108460;28;20081;-67
2023/02/09 18:58:01;;;;;;;31.00;18.60;;;;;;;2.30;100.00;102972.88;10110336;28;20763;-66
2023/02/09 19:02:58;;;;;;;26.77;16.60;;;;;;;2.30;100.00;102975.59;10109519;28;20516;-67
2023/02/09 19:07:55;;;;;;;27.83;16.77;;;;;;;2.29;100.00;102963.09;10104904;28;20204;-66
2023/02/09 19:12:52;;;;;;;26.73;16.88;;;;;;;2.25;100.00;102969.97;10108930;28;20054;-66
2023/02/09 19:17:49;;;;;;;29.55;18.33;;;;;;;2.23;100.00;102972.06;10107142;28;20509;-66
2023/02/09 19:22:50;;;;;;;33.53;17.85;;;;;;;2.23;100.00;102979.31;10095834;28;20050;-66
2023/02/09 19:27:46;;;;;;;30.35;18.08;;;;;;;2.28;100.00;102985.75;10109361;28;20047;-66
2023/02/09 19:32:43;;;;;;;32.15;16.90;;;;;;;2.27;100.00;102984.06;10095741;28;21527;-66
2023/02/09 19:37:40;;;;;;;25.38;15.95;;;;;;;2.27;100.00;102973.28;10104830;28;20126;-67
2023/02/09 19:42:37;;;;;;;32.85;19.48;;;;;;;2.27;100.00;102975.97;10110092;28;20737;-66
2023/02/09 19:47:33;;;;;;;32.42;19.77;;;;;;;2.24;100.00;102976.41;10108939;28;20061;-67
2023/02/09 19:52:30;;;;;;;31.98;19.17;;;;;;;2.12;100.00;102979.94;10101752;28;20088;-66
2023/02/09 19:57:27;;;;;;;30.83;19.23;;;;;;;1.99;100.00;102983.44;10097770;28;20102;-66
2023/02/09 20:02:23;;;;;;;32.65;20.90;;;;;;;1.85;100.00;102978.00;10109218;28;20046;-66
2023/02/09 20:07:20;;;;;;;33.45;19.63;;;;;;;1.75;100.00;102991.06;10109910;28;20150;-67
2023/02/09 20:12:17;;;;;;;39.60;21.38;;;;;;;1.77;100.00;102980.06;10099652;28;20802;-67
2023/02/09 20:17:14;;;;;;;38.45;23.42;;;;;;;1.85;100.00;102991.47;10098105;28;20043;-66
2023/02/09 20:22:11;;;;;;;39.03;23.77;;;;;;;1.85;100.00;102986.09;10087621;28;20074;-66
2023/02/09 20:27:08;;;;;;;39.15;26.33;;;;;;;1.94;100.00;102989.44;10102381;28;20054;-66
2023/02/09 20:32:05;;;;;;;38.75;25.33;;;;;;;2.02;100.00;103008.16;10098510;28;20146;-66
2023/02/09 20:37:01;;;;;;;41.30;26.55;;;;;;;2.04;100.00;103011.47;10100072;28;20047;-67
2023/02/09 20:47:14;;;;;;;39.08;25.30;;;;;;;2.14;100.00;103021.88;10078154;28;20062;-67
2023/02/09 20:52:10;;;;;;;39.17;25.77;;;;;;;2.16;100.00;103025.19;10096305;28;20146;-66
2023/02/09 20:57:07;;;;;;;41.75;26.17;;;;;;;2.07;100.00;103015.63;10105045;28;20070;-66
2023/02/09 21:02:03;;;;;;;46.80;25.63;;;;;;;2.12;100.00;103018.53;10101815;28;20505;-65
2023/02/09 21:07:02;;;;;;;34.03;24.83;;;;;;;2.04;100.00;103018.72;10103377;28;20497;-66
2023/02/09 21:11:59;;;;;;;43.30;25.75;;;;;;;2.03;100.00;103019.75;10109078;28;20584;-66
2023/02/09 21:16:56;;;;;;;42.65;25.92;;;;;;;2.06;100.00;103019.34;10100787;28;20077;-65
2023/02/09 21:21:52;;;;;;;46.05;27.85;;;;;;;2.08;100.00;103044.25;10106303;28;20043;-66
2023/02/09 21:26:49;;;;;;;45.53;27.88;;;;;;;2.05;100.00;103039.28;10114755;28;20093;-66
2023/02/09 21:31:46;;;;;;;50.78;30.20;;;;;;;2.05;100.00;103055.47;10116092;28;20483;-66
2023/02/09 21:36:42;;;;;;;47.85;30.35;;;;;;;2.00;100.00;103047.16;10112592;28;20043;-65
2023/02/09 21:46:54;;;;;;;45.97;28.45;;;;;;;2.02;100.00;103061.25;10104921;28;20043;-65
2023/02/09 21:51:51;;;;;;;42.58;29.70;;;;;;;2.06;100.00;103063.34;10120101;28;20137;-65
2023/02/09 21:56:48;;;;;;;47.15;29.98;;;;;;;2.06;100.00;103068.75;10118035;28;20046;-65
2023/02/09 22:01:44;;;;;;;47.90;30.45;;;;;;;2.08;100.00;103068.56;10115435;28;20501;-65
2023/02/09 22:06:41;;;;;;;44.90;32.25;;;;;;;2.11;100.00;103070.84;10114245;28;20035;-65
2023/02/09 22:11:37;;;;;;;52.60;30.35;;;;;;;2.14;100.00;103073.16;10118354;28;20049;-66
2023/02/09 22:16:34;;;;;;;44.92;28.02;;;;;;;2.08;100.00;103061.28;10117104;28;20042;-65
2023/02/09 22:21:30;;;;;;;48.28;31.00;;;;;;;2.08;100.00;103084.75;10122979;28;20046;-65
2023/02/09 22:26:27;;;;;;;50.67;30.60;;;;;;;2.09;100.00;103083.72;10105553;28;20047;-65
2023/02/09 22:31:23;;;;;;;54.20;30.20;;;;;;;2.08;100.00;103088.28;10112391;28;20427;-64
2023/02/09 22:36:20;;;;;;;47.38;31.13;;;;;;;2.12;100.00;103088.72;10109542;28;20043;-64
2023/02/09 22:41:20;;;;;;;53.42;32.17;;;;;;;2.12;100.00;103099.50;10113205;28;20070;-64
2023/02/09 22:46:18;;;;;;;45.38;29.92;;;;;;;2.12;100.00;103094.09;10110938;28;20054;-65
2023/02/09 22:51:16;;;;;;;54.97;32.13;;;;;;;2.11;100.00;103095.13;10118545;28;20042;-64